Time;durP1;ratioP1;P1;durP2;ratioP2;P2;SDS_P1;SDS_P2;PMS_P1;PMS_P2;Temp;Humidity;BMP_temperature;BMP_pressure;BME280_temperature;BME280_humidity;BME280_pressure;Samples;Min_cycle;Max_cycle;Signal;HPM_P1;HPM_P2
2023/09/12 00:01:22;;;;;;;8.17;4.33;;;;;;;-143.84;74.03;45079.53;5068518;28;20445;-55
2023/09/12 00:03:49;;;;;;;5.40;3.90;;;;;;;-143.84;74.05;45092.88;5068623;28;20445;-55
2023/09/12 00:06:17;;;;;;;4.07;3.77;;;;;;;-143.84;74.16;45087.16;5068622;28;20470;-55
2023/09/12 00:08:44;;;;;;;7.43;4.30;;;;;;;-143.84;74.13;45073.81;5070960;28;20504;-55
2023/09/12 00:11:11;;;;;;;13.53;4.60;;;;;;;-143.84;74.26;45054.78;5072740;28;20452;-55
2023/09/12 00:13:39;;;;;;;7.97;4.10;;;;;;;-143.84;74.26;45066.22;5072677;28;20536;-55
2023/09/12 00:16:10;;;;;;;10.80;4.50;;;;;;;-143.84;74.32;45071.91;5072525;28;20429;-55
2023/09/12 00:18:37;;;;;;;9.43;4.47;;;;;;;-143.84;74.41;45058.59;5072805;28;20449;-55
2023/09/12 00:21:05;;;;;;;5.97;4.40;;;;;;;-143.84;74.52;45155.69;5072561;28;20437;-55
2023/09/12 00:23:32;;;;;;;8.27;4.87;;;;;;;-143.84;74.49;45075.72;5072560;28;20432;-55
2023/09/12 00:25:59;;;;;;;7.30;4.80;;;;;;;-143.84;74.45;45085.25;5072549;28;20444;-55
2023/09/12 00:28:26;;;;;;;4.83;4.43;;;;;;;-143.84;74.64;45068.13;5072464;28;20445;-55
2023/09/12 00:30:53;;;;;;;12.90;4.40;;;;;;;-143.84;74.56;45096.66;5072179;28;20502;-55
2023/09/12 00:33:22;;;;;;;5.87;4.43;;;;;;;-143.84;74.64;45064.31;5072429;28;20480;-55
2023/09/12 00:35:49;;;;;;;4.90;4.40;;;;;;;-143.84;74.83;45089.06;5072461;28;20441;-55
2023/09/12 00:38:16;;;;;;;6.23;4.40;;;;;;;-143.84;75.12;45077.63;5072331;28;20436;-55
2023/09/12 00:40:43;;;;;;;5.97;3.47;;;;;;;-143.84;75.42;45056.69;5072231;28;20455;-55
2023/09/12 00:43:11;;;;;;;9.43;4.00;;;;;;;-143.84;75.52;45090.97;5072385;28;20437;-55
2023/09/12 00:45:38;;;;;;;6.97;4.23;;;;;;;-143.84;75.55;45070.00;5071882;28;20442;-55
2023/09/12 00:48:07;;;;;;;5.17;4.60;;;;;;;-143.84;75.55;45089.06;5071912;28;20543;-55
2023/09/12 00:50:37;;;;;;;4.70;4.27;;;;;;;-143.84;75.38;45085.25;5072253;28;20520;-55
2023/09/12 00:53:05;;;;;;;4.90;4.40;;;;;;;-143.84;75.09;45087.16;5072042;28;20448;-55
2023/09/12 00:55:35;;;;;;;6.77;4.10;;;;;;;-143.84;75.03;45094.78;5072204;28;20475;-55
2023/09/12 00:58:02;;;;;;;5.33;3.97;;;;;;;-143.84;75.01;45081.44;5071724;28;20456;-55
2023/09/12 01:00:30;;;;;;;6.20;4.27;;;;;;;-143.84;74.83;45056.69;5071534;28;20503;-55
2023/09/12 01:02:58;;;;;;;6.77;4.80;;;;;;;-143.84;74.95;45100.47;5072018;28;20772;-55
2023/09/12 01:05:25;;;;;;;9.37;5.20;;;;;;;-143.84;75.44;45075.72;5071634;28;20444;-55
2023/09/12 01:07:54;;;;;;;5.13;4.63;;;;;;;-143.84;75.61;45062.41;5071597;28;20444;-55
2023/09/12 01:10:21;;;;;;;9.63;4.90;;;;;;;-143.84;75.74;45077.63;5072062;28;20440;-55
2023/09/12 01:12:48;;;;;;;11.83;4.80;;;;;;;-143.84;76.06;45075.72;5071596;28;20494;-55
2023/09/12 01:15:15;;;;;;;12.30;5.07;;;;;;;-143.84;76.26;45102.38;5071541;28;20519;-55
2023/09/12 01:17:44;;;;;;;8.30;4.60;;;;;;;-143.84;76.54;45098.56;5071603;28;20495;-55
2023/09/12 01:20:16;;;;;;;7.03;4.30;;;;;;;-143.84;76.46;45089.06;5070944;28;20447;-55
2023/09/12 01:23:22;;;;;;;5.63;4.40;;;;;;;-143.84;76.43;45098.56;5071502;28;20476;-55
2023/09/12 01:26:08;;;;;;;11.10;4.30;;;;;;;-143.84;76.70;45094.78;5071945;28;20546;-55
2023/09/12 01:28:42;;;;;;;5.37;4.00;;;;;;;-143.84;76.74;45071.91;5071199;28;20688;-55
2023/09/12 01:31:10;;;;;;;4.00;3.70;;;;;;;-143.84;76.73;45092.88;5071140;28;20452;-55
2023/09/12 01:33:37;;;;;;;9.30;4.00;;;;;;;-143.84;76.60;45085.25;5070928;28;21015;-55
2023/09/12 01:36:05;;;;;;;8.53;4.10;;;;;;;-143.84;76.64;45070.00;5071040;28;20441;-55
2023/09/12 01:38:32;;;;;;;4.43;4.03;;;;;;;-143.84;76.50;45100.47;5071567;28;20940;-55
2023/09/12 01:41:00;;;;;;;6.27;4.40;;;;;;;-143.84;76.66;45083.34;5070972;28;20445;-55
2023/09/12 01:43:28;;;;;;;3.93;3.50;;;;;;;-143.84;76.76;45071.91;5070675;28;20440;-55
2023/09/12 01:45:59;;;;;;;5.07;3.87;;;;;;;-143.84;76.72;45075.72;5070843;28;20499;-55
2023/09/12 01:48:33;;;;;;;5.90;3.83;;;;;;;-143.84;76.44;45079.53;5070920;28;20453;-55
2023/09/12 01:51:00;;;;;;;7.73;4.07;;;;;;;-143.84;76.50;45104.28;5071053;28;20522;-55
2023/09/12 01:53:29;;;;;;;5.67;4.00;;;;;;;-143.84;76.72;45087.16;5070818;28;20790;-55
2023/09/12 01:55:58;;;;;;;4.43;3.83;;;;;;;-143.84;76.75;45090.97;5070569;28;20977;-55
2023/09/12 01:58:27;;;;;;;4.57;4.17;;;;;;;-143.84;76.52;45077.63;5070638;28;20457;-55
2023/09/12 02:00:54;;;;;;;4.20;3.73;;;;;;;-143.84;76.59;45079.53;5070636;28;20515;-55
2023/09/12 02:03:23;;;;;;;4.07;3.70;;;;;;;-143.84;76.60;45075.72;5070779;28;20437;-55
2023/09/12 02:05:50;;;;;;;4.13;3.73;;;;;;;-143.84;76.68;45071.91;5070545;28;20441;-55
2023/09/12 02:08:17;;;;;;;5.13;4.63;;;;;;;-143.84;76.57;45070.00;5070743;28;20448;-55
2023/09/12 02:10:44;;;;;;;4.90;4.50;;;;;;;-143.84;76.59;45092.88;5071007;28;20432;-55
2023/09/12 02:13:11;;;;;;;11.40;4.50;;;;;;;-143.84;76.76;45100.47;5070928;28;20433;-55
2023/09/12 02:15:38;;;;;;;9.90;4.50;;;;;;;-143.84;76.82;45083.34;5070608;28;20570;-55
2023/09/12 02:18:06;;;;;;;4.40;3.90;;;;;;;-143.84;77.02;45079.53;5070749;28;20444;-55
2023/09/12 02:20:38;;;;;;;6.60;3.83;;;;;;;-143.84;77.37;45071.91;5070569;28;20440;-55
2023/09/12 02:23:06;;;;;;;11.87;4.37;;;;;;;-143.84;77.17;45070.00;5069993;28;20449;-55
2023/09/12 02:25:33;;;;;;;15.03;4.43;;;;;;;-143.84;77.19;45083.34;5069927;28;20498;-55
2023/09/12 02:28:00;;;;;;;6.27;4.53;;;;;;;-143.84;77.34;45115.72;5070278;28;20456;-55
2023/09/12 02:30:27;;;;;;;4.87;4.47;;;;;;;-143.84;77.42;45079.53;5069354;28;20486;-55
2023/09/12 02:32:54;;;;;;;4.27;3.87;;;;;;;-143.84;77.57;45079.53;5070122;28;20506;-55
2023/09/12 02:35:21;;;;;;;4.20;3.83;;;;;;;-143.84;77.34;45073.81;5070185;28;20917;-55
2023/09/12 02:37:50;;;;;;;5.90;4.20;;;;;;;-143.84;77.17;45066.22;5070336;28;20440;-55
2023/09/12 02:40:18;;;;;;;5.00;4.03;;;;;;;-143.84;77.06;45106.19;5069839;28;20882;-55
2023/09/12 02:42:45;;;;;;;5.30;4.20;;;;;;;-143.84;77.16;45077.63;5070239;28;20845;-55
2023/09/12 02:45:12;;;;;;;12.43;4.43;;;;;;;-143.84;77.12;45081.44;5069785;28;20451;-55
2023/09/12 02:47:39;;;;;;;4.73;4.23;;;;;;;-143.84;77.12;45098.56;5069421;28;20451;-55
2023/09/12 02:50:07;;;;;;;4.87;4.43;;;;;;;-143.84;77.20;45089.06;5069448;28;20506;-55
2023/09/12 02:52:35;;;;;;;11.77;5.13;;;;;;;-143.84;77.10;45087.16;5069442;28;20449;-55
2023/09/12 02:55:03;;;;;;;11.30;5.03;;;;;;;-143.84;76.73;45096.66;5069410;28;20504;-55
2023/09/12 02:57:30;;;;;;;5.60;4.70;;;;;;;-143.84;77.00;45085.25;5069268;28;21004;-55
2023/09/12 02:59:58;;;;;;;16.50;14.00;;;;;;;-143.84;76.91;45083.34;5069217;28;20480;-55
2023/09/12 03:02:25;;;;;;;33.20;27.70;;;;;;;-143.84;76.89;45081.44;5068969;28;20437;-55
2023/09/12 03:04:52;;;;;;;18.23;16.40;;;;;;;-143.84;76.77;45089.06;5069217;28;20473;-55
2023/09/12 03:07:19;;;;;;;15.50;12.23;;;;;;;-143.84;76.60;45083.34;5069549;28;20429;-55
2023/09/12 03:09:49;;;;;;;13.33;11.87;;;;;;;-143.84;76.58;45081.44;5068907;28;20448;-55
2023/09/12 03:12:18;;;;;;;7.43;6.73;;;;;;;-143.84;76.39;45079.53;5069139;28;20917;-55
2023/09/12 03:14:45;;;;;;;9.83;9.00;;;;;;;-143.84;76.43;45066.22;5068838;28;20476;-55
2023/09/12 03:17:12;;;;;;;18.33;12.73;;;;;;;-143.84;76.45;45096.66;5069018;28;20444;-55
2023/09/12 03:19:39;;;;;;;18.43;14.13;;;;;;;-143.84;76.77;45089.06;5069351;28;20437;-55
2023/09/12 03:22:06;;;;;;;12.83;11.43;;;;;;;-143.84;76.78;45104.28;5069291;28;20440;-55
2023/09/12 03:24:33;;;;;;;21.23;16.40;;;;;;;-143.84;76.92;45100.47;5069260;28;20463;-55
2023/09/12 03:27:00;;;;;;;72.50;49.07;;;;;;;-143.84;76.82;45079.53;5069033;28;20449;-55
2023/09/12 03:29:29;;;;;;;91.10;57.60;;;;;;;-143.84;76.76;45094.78;5068889;28;20436;-55
2023/09/12 03:31:56;;;;;;;61.70;42.00;;;;;;;-143.84;76.67;45079.53;5069065;28;20448;-55
2023/09/12 03:34:23;;;;;;;43.43;29.93;;;;;;;-143.84;76.58;45064.31;5069252;28;20484;-55
2023/09/12 03:36:50;;;;;;;33.73;25.47;;;;;;;-143.84;76.52;45092.88;5060365;28;20460;-57
2023/09/12 03:39:17;;;;;;;43.40;28.27;;;;;;;-143.84;76.55;45096.66;5049261;28;21436;-57
2023/09/12 03:41:44;;;;;;;26.77;20.03;;;;;;;-143.84;76.63;45068.13;5049024;28;21228;-57
2023/09/12 03:44:12;;;;;;;15.50;11.57;;;;;;;-143.84;76.89;45081.44;5047979;28;20507;-57
2023/09/12 03:46:40;;;;;;;17.20;10.87;;;;;;;-143.84;77.03;45096.66;5048501;28;21179;-57
2023/09/12 03:49:07;;;;;;;17.73;12.47;;;;;;;-143.84;77.31;45087.16;5048543;28;20511;-57
2023/09/12 03:51:37;;;;;;;23.10;20.60;;;;;;;-143.84;77.56;45106.19;5048258;28;20429;-57
2023/09/12 03:54:05;;;;;;;40.13;27.73;;;;;;;-143.84;77.81;45096.66;5048277;28;20974;-57
2023/09/12 03:56:32;;;;;;;57.20;45.80;;;;;;;-143.84;77.80;45089.06;5054428;28;20455;-57
2023/09/12 03:58:59;;;;;;;57.53;43.20;;;;;;;-143.84;77.77;45089.06;5067602;28;20451;-57
2023/09/12 04:01:27;;;;;;;48.47;34.33;;;;;;;-143.84;78.04;45102.38;5068572;28;20512;-57
2023/09/12 04:03:55;;;;;;;28.77;25.60;;;;;;;-143.84;78.25;45100.47;5068216;28;20507;-57
2023/09/12 04:06:22;;;;;;;27.73;23.50;;;;;;;-143.84;78.44;45079.53;5067996;28;20448;-57
2023/09/12 04:08:49;;;;;;;16.23;13.77;;;;;;;-143.84;78.47;45073.81;5067867;28;20508;-57
2023/09/12 04:11:17;;;;;;;13.47;9.63;;;;;;;-143.84;78.71;45106.19;5067772;28;20498;-57
2023/09/12 04:13:44;;;;;;;10.83;9.73;;;;;;;-143.84;78.68;45110.00;5067548;28;20596;-57
2023/09/12 04:16:11;;;;;;;8.73;7.60;;;;;;;-143.84;78.77;45068.13;5067551;28;20484;-57
2023/09/12 04:18:38;;;;;;;9.07;8.27;;;;;;;-143.84;78.86;45098.56;5068005;28;20472;-57
2023/09/12 04:21:06;;;;;;;8.30;7.10;;;;;;;-143.84;79.03;45102.38;5067891;28;20448;-57
2023/09/12 04:23:33;;;;;;;8.13;6.90;;;;;;;-143.84;78.93;45090.97;5067789;28;20507;-57
2023/09/12 04:26:03;;;;;;;7.60;6.97;;;;;;;-143.84;78.83;45087.16;5068007;28;20445;-57
2023/09/12 04:28:30;;;;;;;8.83;8.03;;;;;;;-143.84;78.63;45098.56;5067855;28;21028;-57
2023/09/12 04:31:03;;;;;;;8.50;7.80;;;;;;;-143.84;78.75;45090.97;5068066;28;21012;-57
2023/09/12 04:33:30;;;;;;;9.30;8.47;;;;;;;-143.84;78.83;45081.44;5068062;28;20682;-57
2023/09/12 04:36:00;;;;;;;20.80;9.83;;;;;;;-143.84;78.94;45083.34;5067752;28;20492;-57
2023/09/12 04:38:28;;;;;;;10.03;9.13;;;;;;;-143.84;79.17;45113.81;5068026;28;20514;-57
2023/09/12 04:40:57;;;;;;;12.57;9.37;;;;;;;-143.84;79.56;45081.44;5067849;28;20460;-57
2023/09/12 04:43:24;;;;;;;7.90;7.10;;;;;;;-143.84;79.97;45106.19;5067732;28;20513;-57
2023/09/12 04:45:51;;;;;;;12.50;8.00;;;;;;;-143.84;79.84;45083.34;5067903;28;20522;-58
2023/09/12 04:48:19;;;;;;;12.53;7.70;;;;;;;-143.84;80.74;45073.81;5068004;28;20452;-57
2023/09/12 04:50:46;;;;;;;7.50;6.27;;;;;;;-143.84;79.88;45041.44;5067889;28;20444;-58
2023/09/12 04:53:13;;;;;;;6.77;6.17;;;;;;;-143.84;78.86;45060.50;5068064;28;20859;-58
2023/09/12 04:55:42;;;;;;;5.27;4.87;;;;;;;-143.84;76.68;45064.31;5071326;28;20480;-58
2023/09/12 04:58:09;;;;;;;8.60;5.00;;;;;;;-143.84;74.00;45081.44;5071417;28;20453;-58
2023/09/12 05:00:36;;;;;;;8.57;4.40;;;;;;;-143.84;72.20;45050.97;5071320;28;20601;-58
2023/09/12 05:03:03;;;;;;;7.90;4.13;;;;;;;-143.84;69.26;45052.88;5071326;28;20860;-58
2023/09/12 05:05:31;;;;;;;4.60;3.53;;;;;;;-143.84;69.92;45028.13;5071142;28;20554;-58
2023/09/12 05:07:58;;;;;;;10.47;3.97;;;;;;;-143.84;68.47;45035.75;5071276;28;20456;-58
2023/09/12 05:10:26;;;;;;;4.47;3.77;;;;;;;-143.84;66.96;45035.75;5071056;28;20440;-58
2023/09/12 05:12:54;;;;;;;4.40;4.10;;;;;;;-143.84;64.39;45043.34;5071045;28;20441;-58
2023/09/12 05:15:21;;;;;;;4.97;4.00;;;;;;;-143.84;61.32;45037.66;5071205;28;20578;-58
2023/09/12 05:17:48;;;;;;;4.13;3.53;;;;;;;-143.84;60.90;45014.78;5070846;28;20982;-58
2023/09/12 05:20:16;;;;;;;5.13;3.30;;;;;;;-143.84;58.94;45018.59;5070981;28;20445;-58
2023/09/12 05:22:43;;;;;;;8.03;4.20;;;;;;;-143.84;58.83;45033.84;5071085;28;20448;-57
2023/09/12 05:25:10;;;;;;;3.77;3.23;;;;;;;-143.84;56.37;45009.09;5070985;28;20483;-58
2023/09/12 05:27:37;;;;;;;5.00;3.97;;;;;;;-143.84;54.02;45003.38;5070870;28;20455;-58
2023/09/12 05:30:07;;;;;;;3.43;3.17;;;;;;;-143.84;51.73;44993.84;5070819;28;20447;-57
2023/09/12 05:32:36;;;;;;;9.30;3.50;;;;;;;-143.84;50.24;44982.41;5070663;28;20445;-57
2023/09/12 05:35:03;;;;;;;4.90;2.90;;;;;;;-143.84;51.41;45018.59;5070520;28;20484;-57
2023/09/12 05:37:30;;;;;;;2.83;2.43;;;;;;;-143.84;48.16;44988.13;5071111;28;20441;-57
2023/09/12 05:39:58;;;;;;;3.40;3.20;;;;;;;-143.84;48.71;45005.28;5070650;28;20437;-57
2023/09/12 05:42:25;;;;;;;7.70;3.33;;;;;;;-143.84;47.98;44980.53;5070726;28;20441;-57
2023/09/12 05:44:53;;;;;;;6.33;3.00;;;;;;;-143.84;48.45;44984.31;5070489;28;20949;-57
2023/09/12 05:47:22;;;;;;;6.53;3.50;;;;;;;-143.84;47.33;44991.94;5070472;28;20449;-57
2023/09/12 05:49:49;;;;;;;8.60;3.53;;;;;;;-143.84;48.19;44995.75;5070364;28;20441;-57
2023/09/12 05:52:16;;;;;;;3.30;2.83;;;;;;;-143.84;46.00;44993.84;5070646;28;20462;-57
2023/09/12 05:54:43;;;;;;;3.73;2.73;;;;;;;-143.84;44.64;44972.91;5070457;28;20465;-57
2023/09/12 05:57:11;;;;;;;6.83;3.00;;;;;;;-143.84;43.74;44971.00;5070399;28;20440;-57
2023/09/12 05:59:39;;;;;;;3.77;2.53;;;;;;;-143.84;43.36;44988.13;5070323;28;20488;-57
2023/09/12 06:02:09;;;;;;;3.40;2.93;;;;;;;-143.84;42.22;44999.56;5070405;28;20437;-57
2023/09/12 06:04:37;;;;;;;3.70;3.13;;;;;;;-143.84;41.67;44955.75;5069955;28;20503;-57
2023/09/12 06:07:05;;;;;;;2.80;2.60;;;;;;;-143.84;40.91;44950.06;5069186;28;20493;-57
2023/09/12 06:09:32;;;;;;;3.13;2.60;;;;;;;-143.84;41.15;44944.34;5069960;28;20444;-57
2023/09/12 06:11:59;;;;;;;5.83;2.67;;;;;;;-143.84;42.20;44999.56;5069818;28;20437;-57
2023/09/12 06:14:26;;;;;;;3.63;2.30;;;;;;;-143.84;40.80;44993.84;5069877;28;20436;-57
2023/09/12 06:16:54;;;;;;;6.03;3.07;;;;;;;-143.84;41.29;44959.56;5069984;28;20480;-57
2023/09/12 06:19:21;;;;;;;5.77;2.50;;;;;;;-143.84;41.37;44990.03;5069693;28;20441;-57
2023/09/12 06:21:49;;;;;;;3.60;3.27;;;;;;;-143.84;41.91;44971.00;5069790;28;20440;-57
2023/09/12 06:24:20;;;;;;;6.60;2.23;;;;;;;-143.84;40.86;44993.84;5069682;28;20434;-57
2023/09/12 06:26:48;;;;;;;2.97;2.67;;;;;;;-143.84;40.21;45007.19;5069514;28;20445;-57
2023/09/12 06:29:15;;;;;;;2.53;2.30;;;;;;;-143.84;39.66;44974.81;5069980;28;20498;-57
2023/09/12 06:31:43;;;;;;;4.50;3.17;;;;;;;-143.84;40.70;44957.66;5069518;28;20445;-57
2023/09/12 06:34:11;;;;;;;4.50;2.43;;;;;;;-143.84;40.22;44967.19;5069490;28;20435;-57
2023/09/12 06:36:41;;;;;;;3.03;2.37;;;;;;;-143.84;40.17;44969.09;5069552;28;20571;-57
2023/09/12 06:39:09;;;;;;;3.80;2.60;;;;;;;-143.84;40.43;44980.53;5069456;28;21028;-57
2023/09/12 06:41:36;;;;;;;7.07;3.00;;;;;;;-143.84;40.37;44963.38;5069346;28;20445;-57
2023/09/12 06:44:05;;;;;;;2.53;2.30;;;;;;;-143.84;39.16;44974.81;5069602;28;20429;-57
2023/09/12 06:46:35;;;;;;;2.60;2.40;;;;;;;-143.84;38.96;44976.72;5069290;28;20448;-57
2023/09/12 06:49:02;;;;;;;4.63;2.70;;;;;;;-143.84;39.49;44940.53;5069203;28;20476;-57
2023/09/12 06:51:30;;;;;;;6.10;2.43;;;;;;;-143.84;39.82;44942.44;5069189;28;20444;-57
2023/09/12 06:53:57;;;;;;;3.20;2.73;;;;;;;-143.84;38.91;44984.31;5069515;28;20441;-57
2023/09/12 06:56:25;;;;;;;8.63;3.30;;;;;;;-143.84;39.71;44971.00;5069363;28;20549;-57
2023/09/12 06:58:54;;;;;;;4.37;2.20;;;;;;;-143.84;40.46;44980.53;5068751;28;21044;-57
2023/09/12 07:01:22;;;;;;;10.03;3.07;;;;;;;-143.84;40.00;44959.56;5069042;28;20490;-57
2023/09/12 07:03:53;;;;;;;3.00;2.53;;;;;;;-143.84;39.65;44991.94;5068941;28;20892;-57
2023/09/12 07:06:20;;;;;;;3.33;2.40;;;;;;;-143.84;39.66;44953.88;5068922;28;20449;-57
2023/09/12 07:08:48;;;;;;;3.17;2.40;;;;;;;-143.84;39.46;44951.97;5068953;28;20445;-57
2023/09/12 07:11:15;;;;;;;2.90;2.70;;;;;;;-143.84;40.12;44972.91;5068820;28;20444;-57
2023/09/12 07:13:43;;;;;;;2.77;2.03;;;;;;;-143.84;39.51;44957.66;5068947;28;20437;-57
2023/09/12 07:16:10;;;;;;;2.53;2.43;;;;;;;-143.84;38.89;44963.38;5068572;28;20472;-57
2023/09/12 07:18:38;;;;;;;3.80;2.33;;;;;;;-143.84;40.00;44972.91;5068656;28;20444;-57
2023/09/12 07:21:06;;;;;;;2.77;2.47;;;;;;;-143.84;39.72;44976.72;5068677;28;20440;-57
2023/09/12 07:23:33;;;;;;;4.23;2.40;;;;;;;-143.84;39.97;44959.56;5068614;28;20437;-57
2023/09/12 07:26:02;;;;;;;4.07;2.90;;;;;;;-143.84;39.63;44965.28;5068921;28;20441;-57
2023/09/12 07:28:31;;;;;;;3.17;2.87;;;;;;;-143.84;40.26;44976.72;5068417;28;20451;-57
2023/09/12 07:31:00;;;;;;;3.17;2.90;;;;;;;-143.84;40.23;44961.47;5068568;28;20456;-57
2023/09/12 07:33:27;;;;;;;6.90;3.20;;;;;;;-143.84;39.32;44932.91;5068915;28;21173;-57
2023/09/12 07:35:54;;;;;;;4.03;3.17;;;;;;;-143.84;39.37;44948.16;5068489;28;20507;-57
2023/09/12 07:38:22;;;;;;;2.50;2.30;;;;;;;-143.84;40.14;44965.28;5068656;28;21003;-57
2023/09/12 07:40:49;;;;;;;11.03;3.10;;;;;;;-143.84;41.00;44984.31;5068470;28;20847;-57
2023/09/12 07:43:16;;;;;;;2.63;2.43;;;;;;;-143.84;41.58;44982.41;5068454;28;21004;-58
2023/09/12 07:45:43;;;;;;;2.73;2.43;;;;;;;-143.84;41.98;44965.28;5066347;28;21009;-57
2023/09/12 07:48:12;;;;;;;4.63;2.47;;;;;;;-143.84;40.36;44976.72;5060333;28;20457;-57
2023/09/12 07:50:39;;;;;;;7.03;5.13;;;;;;;-143.84;40.64;44969.09;5048501;28;20533;-57
2023/09/12 07:53:07;;;;;;;3.43;3.13;;;;;;;-143.84;40.76;44950.06;5048381;28;20438;-57
2023/09/12 07:55:45;;;;;;;10.10;6.40;;;;;;;-143.84;41.36;44953.88;5048355;28;20583;-57
2023/09/12 07:58:12;;;;;;;9.83;3.10;;;;;;;-143.84;41.65;44971.00;5048223;28;20488;-57
2023/09/12 08:00:39;;;;;;;5.63;2.30;;;;;;;-143.84;40.79;44974.81;5047914;28;20481;-57
2023/09/12 08:03:06;;;;;;;3.17;2.83;;;;;;;-143.84;41.04;44965.28;5048314;28;20438;-57
2023/09/12 08:05:35;;;;;;;5.87;3.07;;;;;;;-143.84;41.71;44965.28;5048315;28;20873;-57
2023/09/12 08:08:02;;;;;;;3.97;2.43;;;;;;;-143.84;42.06;44971.00;5048574;28;20947;-57
2023/09/12 08:10:29;;;;;;;6.60;2.77;;;;;;;-143.84;42.05;44972.91;5048123;28;20441;-57
2023/09/12 08:12:56;;;;;;;11.23;2.60;;;;;;;-143.84;40.91;44971.00;5048024;28;20445;-57
2023/09/12 08:15:24;;;;;;;2.50;2.30;;;;;;;-143.84;42.10;44976.72;5048105;28;20441;-57
2023/09/12 08:17:53;;;;;;;6.57;2.90;;;;;;;-143.84;42.13;44976.72;5048049;28;21005;-57
2023/09/12 08:20:20;;;;;;;5.20;3.00;;;;;;;-143.84;43.07;44971.00;5048227;28;20461;-57
2023/09/12 08:22:48;;;;;;;4.77;3.10;;;;;;;-143.84;43.40;44988.13;5048247;28;20511;-57
2023/09/12 08:25:16;;;;;;;2.70;2.30;;;;;;;-143.84;43.08;45003.38;5055702;28;20460;-57
2023/09/12 08:27:44;;;;;;;5.03;2.23;;;;;;;-143.84;42.61;44990.03;5059018;28;20453;-57
2023/09/12 08:30:13;;;;;;;7.13;2.20;;;;;;;-143.84;42.75;44980.53;5071191;28;20458;-57
2023/09/12 08:32:43;;;;;;;3.73;2.47;;;;;;;-143.84;42.13;44982.41;5071902;28;20557;-57
2023/09/12 08:35:12;;;;;;;4.20;2.63;;;;;;;-143.84;42.09;44991.94;5063909;28;20966;-57
2023/09/12 08:37:39;;;;;;;4.97;2.83;;;;;;;-143.84;43.25;44969.09;5051883;28;21003;-57
2023/09/12 08:40:10;;;;;;;3.30;1.93;;;;;;;-143.84;41.08;44988.13;5051903;28;20840;-57
2023/09/12 08:42:41;;;;;;;2.30;2.10;;;;;;;-143.84;41.94;44961.47;5051777;28;20998;-57
2023/09/12 08:45:14;;;;;;;2.33;2.13;;;;;;;-143.84;41.03;44963.38;5051958;28;20553;-57
2023/09/12 08:47:43;;;;;;;3.33;2.40;;;;;;;-143.84;39.62;44946.25;5051735;28;20555;-57
2023/09/12 08:50:13;;;;;;;6.03;2.90;;;;;;;-143.84;40.31;44942.44;5051699;28;20446;-57
2023/09/12 08:52:41;;;;;;;2.73;2.50;;;;;;;-143.84;41.42;44957.66;5051829;28;20441;-57
2023/09/12 08:55:10;;;;;;;4.80;2.20;;;;;;;-143.84;41.01;44963.38;5051470;28;20481;-57
2023/09/12 08:57:38;;;;;;;2.40;2.20;;;;;;;-143.84;41.25;44959.56;5051310;28;20481;-57
2023/09/12 09:00:10;;;;;;;2.47;2.27;;;;;;;-143.84;40.32;44946.25;5051342;28;20481;-57
2023/09/12 09:02:38;;;;;;;2.47;2.27;;;;;;;-143.84;40.54;44967.19;5051446;28;21054;-57
2023/09/12 09:05:08;;;;;;;3.70;2.60;;;;;;;-143.84;39.55;44948.16;5051392;28;20445;-57
2023/09/12 09:07:36;;;;;;;3.20;2.03;;;;;;;-143.84;40.57;44961.47;5051691;28;20452;-57
2023/09/12 09:10:06;;;;;;;6.13;1.80;;;;;;;-143.84;40.73;44972.91;5051633;28;21009;-57
2023/09/12 09:12:35;;;;;;;4.20;2.17;;;;;;;-143.84;40.97;44969.09;5051148;28;21025;-57
2023/09/12 09:15:23;;;;;;;3.93;1.97;;;;;;;-143.84;39.23;44972.91;5051501;28;20481;-57
2023/09/12 09:17:51;;;;;;;2.30;2.10;;;;;;;-143.84;39.34;44940.53;5051124;28;20547;-57
2023/09/12 09:20:27;;;;;;;2.53;1.77;;;;;;;-143.84;41.14;44971.00;5051243;28;20828;-57
2023/09/12 09:22:58;;;;;;;10.70;2.43;;;;;;;-143.84;41.29;44955.75;5051011;28;20465;-57
2023/09/12 09:25:26;;;;;;;2.57;1.80;;;;;;;-143.84;40.81;44991.94;5051172;28;20438;-57
2023/09/12 09:27:54;;;;;;;1.97;1.87;;;;;;;-143.84;40.26;44934.81;5050864;28;20483;-57
2023/09/12 09:30:41;;;;;;;3.63;1.73;;;;;;;-143.84;39.08;44976.72;5051338;28;20468;-57
2023/09/12 09:33:08;;;;;;;4.37;2.13;;;;;;;-143.84;38.75;44955.75;5051141;28;20438;-57
2023/09/12 09:35:36;;;;;;;2.30;2.10;;;;;;;-143.84;38.98;44986.22;5051105;28;20446;-57
2023/09/12 09:38:06;;;;;;;4.83;2.20;;;;;;;-143.84;38.76;44955.75;5050864;28;20495;-57
2023/09/12 09:40:34;;;;;;;2.17;1.97;;;;;;;-143.84;38.91;44969.09;5050296;28;20453;-57
2023/09/12 09:43:04;;;;;;;4.10;1.70;;;;;;;-143.84;38.67;44955.75;5050938;28;20503;-57
2023/09/12 09:45:31;;;;;;;2.17;1.60;;;;;;;-143.84;37.92;44957.66;5050889;28;20442;-57
2023/09/12 09:48:00;;;;;;;4.17;1.50;;;;;;;-143.84;38.32;44953.88;5050777;28;20548;-57
2023/09/12 09:50:27;;;;;;;5.33;2.50;;;;;;;-143.84;38.51;44950.06;5050556;28;20532;-57
2023/09/12 09:52:57;;;;;;;2.00;1.73;;;;;;;-143.84;38.44;44944.34;5050438;28;20441;-57
2023/09/12 09:55:25;;;;;;;4.43;2.13;;;;;;;-143.84;39.18;44959.56;5050481;28;20448;-57
2023/09/12 09:57:53;;;;;;;2.97;1.97;;;;;;;-143.84;38.86;44957.66;5050386;28;20584;-57
2023/09/12 10:00:24;;;;;;;1.97;1.87;;;;;;;-143.84;37.67;44955.75;5050241;28;20580;-57
2023/09/12 10:02:52;;;;;;;2.43;1.93;;;;;;;-143.84;37.75;44915.78;5050315;28;20450;-57
2023/09/12 10:05:21;;;;;;;4.23;1.80;;;;;;;-143.84;36.79;44931.00;5050446;28;20438;-57
2023/09/12 10:07:51;;;;;;;2.37;1.50;;;;;;;-143.84;36.45;44915.78;5050435;28;20506;-57
2023/09/12 10:10:19;;;;;;;8.17;1.67;;;;;;;-143.84;36.90;44946.25;5050122;28;20445;-57
2023/09/12 10:12:52;;;;;;;10.60;2.33;;;;;;;-143.84;37.26;44932.91;5050406;28;20446;-57
2023/09/12 10:15:23;;;;;;;3.03;2.10;;;;;;;-143.84;37.29;44942.44;5050094;28;20791;-57
2023/09/12 10:17:57;;;;;;;1.53;1.43;;;;;;;-143.84;37.93;44965.28;5049818;28;20481;-57
2023/09/12 10:20:34;;;;;;;6.07;1.90;;;;;;;-143.84;37.30;44944.34;5050568;28;20506;-57
2023/09/12 10:23:10;;;;;;;1.50;1.40;;;;;;;-143.84;38.06;44961.47;5049941;28;20955;-57
2023/09/12 10:25:38;;;;;;;4.43;2.00;;;;;;;-143.84;37.33;44959.56;5049823;28;20959;-57
2023/09/12 10:28:06;;;;;;;3.23;2.20;;;;;;;-143.84;38.19;44950.06;5049934;28;20449;-57
2023/09/12 10:30:36;;;;;;;3.97;1.83;;;;;;;-143.84;37.78;44965.28;5049892;28;20434;-57
2023/09/12 10:33:04;;;;;;;9.10;1.80;;;;;;;-143.84;38.18;44969.09;5049703;28;20456;-57
2023/09/12 10:35:33;;;;;;;1.73;1.63;;;;;;;-143.84;38.72;44961.47;5049715;28;20438;-57
2023/09/12 10:38:03;;;;;;;3.10;1.97;;;;;;;-143.84;37.77;44929.09;5049489;28;20478;-57
2023/09/12 10:40:32;;;;;;;4.17;2.07;;;;;;;-143.84;38.23;44969.09;5049568;28;20438;-57
2023/09/12 10:43:03;;;;;;;5.77;1.60;;;;;;;-143.84;38.21;44988.13;5049508;28;20507;-57
2023/09/12 10:45:33;;;;;;;1.47;1.20;;;;;;;-143.84;37.92;44959.56;5049213;28;20456;-57
2023/09/12 10:48:01;;;;;;;3.07;1.80;;;;;;;-143.84;38.22;44972.91;5049249;28;20449;-58
2023/09/12 10:50:29;;;;;;;1.50;1.40;;;;;;;-143.84;38.15;44978.63;5049331;28;20445;-57
2023/09/12 10:52:56;;;;;;;3.30;1.53;;;;;;;-143.84;38.52;44976.72;5057191;28;20913;-57
2023/09/12 10:55:23;;;;;;;2.03;1.93;;;;;;;-143.84;38.64;44950.06;5052616;28;20453;-57
2023/09/12 10:58:02;;;;;;;6.00;1.80;;;;;;;-143.84;38.30;44963.38;5049614;28;20500;-57
2023/09/12 11:00:32;;;;;;;4.13;1.70;;;;;;;-143.84;39.17;44967.19;5048349;28;20491;-57
2023/09/12 11:03:21;;;;;;;1.67;1.57;;;;;;;-143.84;39.15;44980.53;5048490;28;20887;-57
2023/09/12 11:05:56;;;;;;;4.70;2.10;;;;;;;-143.84;39.06;44978.63;5048148;28;20977;-57
2023/09/12 11:08:23;;;;;;;3.23;1.60;;;;;;;-143.84;38.79;45014.78;5048085;28;20437;-57
2023/09/12 11:11:18;;;;;;;1.87;1.77;;;;;;;-143.84;39.51;44946.25;5048296;28;20446;-57
2023/09/12 11:13:45;;;;;;;1.70;1.60;;;;;;;-143.84;38.81;44974.81;5048450;28;20940;-57
2023/09/12 11:16:13;;;;;;;1.70;1.60;;;;;;;-143.84;39.26;44967.19;5048040;28;20541;-57
2023/09/12 11:19:15;;;;;;;4.20;2.43;;;;;;;-143.84;39.24;44961.47;5048327;28;20452;-57
2023/09/12 11:21:44;;;;;;;2.23;1.67;;;;;;;-143.84;39.29;44969.09;5048069;28;20433;-57